Time;durP1;ratioP1;P1;durP2;ratioP2;P2;SDS_P1;SDS_P2;PMS_P1;PMS_P2;Temp;Humidity;BMP_temperature;BMP_pressure;BME280_temperature;BME280_humidity;BME280_pressure;Samples;Min_cycle;Max_cycle;Signal;HPM_P1;HPM_P2
2022/04/04 00:00:45;;;;;;;15.67;8.40;;;7.80;92.10;;;;;;5068802;28;20424;-67
2022/04/04 00:03:11;;;;;;;14.38;8.50;;;7.70;92.20;;;;;;5087506;28;20414;-68
2022/04/04 00:05:38;;;;;;;15.30;8.23;;;7.70;92.30;;;;;;5082032;28;20409;-67
2022/04/04 00:08:05;;;;;;;14.27;8.65;;;7.70;92.50;;;;;;5086957;28;20409;-66
2022/04/04 00:10:31;;;;;;;16.95;9.32;;;7.60;92.50;;;;;;5087147;28;20894;-68
2022/04/04 00:12:56;;;;;;;13.02;9.57;;;7.60;92.70;;;;;;5086152;28;20406;-68
2022/04/04 00:15:22;;;;;;;17.38;10.63;;;7.50;92.90;;;;;;5081514;28;20424;-67
2022/04/04 00:17:48;;;;;;;15.13;10.50;;;7.50;93.10;;;;;;5068612;28;20448;-68
2022/04/04 00:20:14;;;;;;;17.23;10.45;;;7.40;93.20;;;;;;5067213;28;20425;-67
2022/04/04 00:22:41;;;;;;;16.10;10.73;;;7.40;93.30;;;;;;5068675;28;20418;-67
2022/04/04 00:25:08;;;;;;;15.02;9.57;;;7.40;93.50;;;;;;5051229;28;20467;-68
2022/04/04 00:27:34;;;;;;;18.33;9.50;;;7.40;93.80;;;;;;5066792;28;20429;-67
2022/04/04 00:30:01;;;;;;;18.10;8.40;;;7.40;94.10;;;;;;5066410;28;20416;-66
2022/04/04 00:32:27;;;;;;;18.98;8.90;;;7.40;94.70;;;;;;5087424;28;20393;-66
2022/04/04 00:34:53;;;;;;;17.60;7.88;;;7.40;94.80;;;;;;5068426;28;20747;-67
2022/04/04 00:37:18;;;;;;;16.23;7.72;;;7.50;94.90;;;;;;5086881;28;20394;-68
2022/04/04 00:39:44;;;;;;;17.70;7.13;;;7.50;95.40;;;;;;5085804;28;20411;-67
2022/04/04 00:42:14;;;;;;;16.38;7.05;;;7.60;95.60;;;;;;5084704;28;20426;-67
2022/04/04 00:44:40;;;;;;;22.40;6.33;;;7.60;96.00;;;;;;5067146;28;20736;-67
2022/04/04 00:47:07;;;;;;;23.38;6.20;;;7.70;96.30;;;;;;5068875;28;20470;-66
2022/04/04 00:49:33;;;;;;;19.77;5.95;;;7.80;96.60;;;;;;5068165;28;20386;-67
2022/04/04 00:51:59;;;;;;;20.92;6.10;;;7.80;96.60;;;;;;5050633;28;20405;-67
2022/04/04 00:54:24;;;;;;;18.23;5.53;;;7.90;96.70;;;;;;5067915;28;20186;-67
2022/04/04 00:56:50;;;;;;;18.38;5.90;;;7.60;96.80;;;;;;5087140;28;20269;-68
2022/04/04 00:59:20;;;;;;;15.30;5.60;;;7.40;97.10;;;;;;5068980;28;20201;-65
2022/04/04 01:01:46;;;;;;;21.83;6.25;;;7.20;97.20;;;;;;5069158;28;20189;-67
2022/04/04 01:04:13;;;;;;;17.67;6.07;;;7.20;97.30;;;;;;5069499;28;20186;-69
2022/04/04 01:06:39;;;;;;;25.63;7.00;;;7.10;97.30;;;;;;5080617;28;20211;-67
2022/04/04 01:09:05;;;;;;;18.48;7.15;;;7.10;97.30;;;;;;5063525;28;20190;-66
2022/04/04 01:11:31;;;;;;;22.05;6.68;;;7.10;97.40;;;;;;5051940;28;20182;-68
2022/04/04 01:13:57;;;;;;;17.58;6.38;;;7.00;97.30;;;;;;5087526;28;20217;-67
2022/04/04 01:16:23;;;;;;;19.98;6.50;;;7.10;97.30;;;;;;5055219;28;20256;-66
2022/04/04 01:18:49;;;;;;;21.92;7.13;;;7.00;97.60;;;;;;5066926;28;20605;-67
2022/04/04 01:21:19;;;;;;;19.23;7.75;;;7.10;97.30;;;;;;5069124;28;20193;-66
2022/04/04 01:23:49;;;;;;;15.90;7.47;;;7.10;97.30;;;;;;5074700;28;20186;-66
2022/04/04 01:26:18;;;;;;;20.05;7.85;;;7.10;97.30;;;;;;5088994;28;20266;-69
2022/04/04 01:28:43;;;;;;;15.75;7.57;;;7.10;97.20;;;;;;5073850;28;20186;-67
2022/04/04 01:31:09;;;;;;;19.42;7.43;;;7.10;97.20;;;;;;5073045;28;20174;-67
2022/04/04 01:33:37;;;;;;;21.95;8.07;;;7.10;97.10;;;;;;5055817;28;20182;-67
2022/04/04 01:36:03;;;;;;;19.25;8.23;;;7.20;97.00;;;;;;5089977;28;20681;-67
2022/04/04 01:38:32;;;;;;;18.23;8.18;;;7.20;97.00;;;;;;5074443;28;20190;-67
2022/04/04 01:40:57;;;;;;;20.90;8.02;;;7.20;96.90;;;;;;5071836;28;20190;-64
2022/04/04 01:43:24;;;;;;;18.20;7.65;;;7.20;96.80;;;;;;5091214;28;20256;-67
2022/04/04 01:48:35;;;;;;;19.02;8.85;;;7.20;96.70;;;;;;5090800;28;20556;-67
2022/04/04 01:51:01;;;;;;;18.85;8.20;;;7.20;96.60;;;;;;5089870;28;20182;-67
2022/04/04 01:53:27;;;;;;;17.33;8.20;;;7.20;96.50;;;;;;5070086;28;21261;-67
2022/04/04 01:55:55;;;;;;;24.33;8.60;;;7.20;96.30;;;;;;5089630;28;20185;-66
2022/04/04 01:58:20;;;;;;;17.60;8.65;;;7.30;96.30;;;;;;5072223;28;20273;-67
2022/04/04 02:00:46;;;;;;;21.42;8.88;;;7.30;96.20;;;;;;5089053;28;20235;-69
2022/04/04 02:03:12;;;;;;;16.40;7.93;;;7.30;96.00;;;;;;5088673;28;20728;-65
2022/04/04 02:05:38;;;;;;;21.77;8.57;;;7.30;95.90;;;;;;5068479;28;20285;-67
2022/04/04 02:08:04;;;;;;;21.10;8.35;;;7.40;95.80;;;;;;5092433;28;20209;-66
2022/04/04 02:10:30;;;;;;;15.80;8.82;;;7.40;95.70;;;;;;5090520;28;20186;-67
2022/04/04 02:12:56;;;;;;;20.48;8.05;;;7.40;95.70;;;;;;5072333;28;20194;-68
2022/04/04 02:15:22;;;;;;;20.70;7.78;;;7.40;95.60;;;;;;5069500;28;20182;-66
2022/04/04 02:17:48;;;;;;;18.77;7.88;;;7.50;95.60;;;;;;5088909;28;20186;-65
2022/04/04 02:20:14;;;;;;;23.88;8.05;;;7.40;95.50;;;;;;5071460;28;20185;-67
2022/04/04 02:22:40;;;;;;;16.20;6.57;;;7.50;95.50;;;;;;5071965;28;20229;-67
2022/04/04 02:25:06;;;;;;;23.17;7.80;;;7.50;95.80;;;;;;5089021;28;20599;-66
2022/04/04 02:27:32;;;;;;;17.13;7.88;;;7.50;95.40;;;;;;5091238;28;20210;-67
2022/04/04 02:29:57;;;;;;;20.38;7.43;;;7.50;95.30;;;;;;5069490;28;20174;-67
2022/04/04 02:32:23;;;;;;;22.85;7.60;;;7.50;95.20;;;;;;5072860;28;20190;-68
2022/04/04 02:34:50;;;;;;;24.15;7.60;;;7.50;95.20;;;;;;5071897;28;20265;-67
2022/04/04 02:37:17;;;;;;;19.30;7.53;;;7.50;95.00;;;;;;5088783;28;20705;-66
2022/04/04 02:39:43;;;;;;;22.02;7.22;;;7.50;95.00;;;;;;5088311;28;20829;-69
2022/04/04 02:42:09;;;;;;;20.17;7.00;;;7.50;94.80;;;;;;5071558;28;20189;-67
2022/04/04 02:44:35;;;;;;;18.45;7.07;;;7.50;94.80;;;;;;5088160;28;20186;-68
2022/04/04 02:47:01;;;;;;;19.90;7.32;;;7.60;94.60;;;;;;5090821;28;20209;-68
2022/04/04 02:49:29;;;;;;;18.90;7.00;;;7.60;94.50;;;;;;5071198;28;20185;-67
2022/04/04 02:51:57;;;;;;;18.35;6.45;;;7.60;94.40;;;;;;5087669;28;20190;-67
2022/04/04 02:54:24;;;;;;;19.33;6.70;;;7.60;94.20;;;;;;5085244;28;20182;-65
2022/04/04 02:56:50;;;;;;;18.88;6.45;;;7.60;94.10;;;;;;5086511;28;20190;-67
2022/04/04 02:59:16;;;;;;;17.17;6.82;;;7.60;94.00;;;;;;5071326;28;20186;-68
2022/04/04 03:01:48;;;;;;;16.00;6.13;;;7.60;93.90;;;;;;5088657;28;20185;-65
2022/04/04 03:04:14;;;;;;;20.63;6.20;;;7.60;93.80;;;;;;5089532;28;20185;-65
2022/04/04 03:06:40;;;;;;;18.27;6.22;;;7.60;93.70;;;;;;5085690;28;20202;-67
2022/04/04 03:09:06;;;;;;;21.55;6.05;;;7.60;93.60;;;;;;5087617;28;20624;-66
2022/04/04 03:11:32;;;;;;;19.55;6.07;;;7.70;93.60;;;;;;5086698;28;20565;-65
2022/04/04 03:13:58;;;;;;;19.58;5.72;;;7.70;93.40;;;;;;5071261;28;20219;-66
2022/04/04 03:16:23;;;;;;;15.02;5.93;;;7.70;93.40;;;;;;5087006;28;20186;-65
2022/04/04 03:18:49;;;;;;;17.80;5.80;;;7.70;93.30;;;;;;5089185;28;20189;-66
2022/04/04 03:21:15;;;;;;;14.10;5.15;;;7.70;93.10;;;;;;5068096;28;20262;-66
2022/04/04 03:23:41;;;;;;;15.23;5.55;;;7.70;93.00;;;;;;5090173;28;20189;-66
2022/04/04 03:26:08;;;;;;;17.10;4.97;;;7.70;92.90;;;;;;5069883;28;20269;-67
2022/04/04 03:28:34;;;;;;;17.23;5.10;;;7.70;92.80;;;;;;5070203;28;20205;-67
2022/04/04 03:31:00;;;;;;;17.48;5.22;;;7.80;92.80;;;;;;5068061;28;20238;-66
2022/04/04 03:33:25;;;;;;;20.77;5.13;;;7.80;92.70;;;;;;5069885;28;20201;-67
2022/04/04 03:35:51;;;;;;;14.90;5.20;;;7.80;92.60;;;;;;5086944;28;20578;-65
2022/04/04 03:38:17;;;;;;;17.98;5.60;;;7.80;92.60;;;;;;5088803;28;20178;-66
2022/04/04 03:40:44;;;;;;;16.02;5.57;;;7.80;92.60;;;;;;5087298;28;20181;-66
2022/04/04 03:43:10;;;;;;;21.17;5.70;;;7.80;92.60;;;;;;5085608;28;20213;-66
2022/04/04 03:45:36;;;;;;;21.35;6.50;;;7.80;92.60;;;;;;5070364;28;20197;-66
2022/04/04 03:48:02;;;;;;;17.15;6.00;;;7.80;92.70;;;;;;5085484;28;20582;-67
2022/04/04 03:50:29;;;;;;;21.52;6.70;;;7.80;92.70;;;;;;5084740;28;20185;-67
2022/04/04 03:52:56;;;;;;;30.15;6.88;;;7.80;92.70;;;;;;5069718;28;20178;-66
2022/04/04 03:55:27;;;;;;;18.55;6.15;;;7.80;92.70;;;;;;5087258;28;20337;-66
2022/04/04 03:57:52;;;;;;;20.30;5.88;;;7.90;92.80;;;;;;5069667;28;20177;-67
2022/04/04 04:00:19;;;;;;;18.70;6.53;;;7.80;92.80;;;;;;5066830;28;20186;-66
2022/04/04 04:02:45;;;;;;;21.35;6.40;;;7.80;92.90;;;;;;5069109;28;20215;-66
2022/04/04 04:05:12;;;;;;;23.05;6.90;;;7.90;92.90;;;;;;5068237;28;20188;-66
2022/04/04 04:07:38;;;;;;;17.75;6.05;;;7.90;92.90;;;;;;5070177;28;20314;-66
2022/04/04 04:10:05;;;;;;;22.77;6.47;;;7.90;93.00;;;;;;5053086;28;20178;-68
2022/04/04 04:12:31;;;;;;;26.25;6.43;;;7.80;93.00;;;;;;5088820;28;20206;-68
2022/04/04 04:14:57;;;;;;;15.35;6.00;;;7.80;93.00;;;;;;5070079;28;20190;-65
2022/04/04 04:17:24;;;;;;;22.20;7.25;;;7.90;93.10;;;;;;5087294;28;20250;-66
2022/04/04 04:22:37;;;;;;;19.67;7.10;;;7.80;93.10;;;;;;5086914;28;20261;-67
2022/04/04 04:25:04;;;;;;;25.77;7.00;;;7.80;93.10;;;;;;5069840;28;20225;-68
2022/04/04 04:27:30;;;;;;;25.25;6.65;;;7.80;93.10;;;;;;5088760;28;20402;-67
2022/04/04 04:29:56;;;;;;;18.75;6.95;;;7.80;93.20;;;;;;5068966;28;20717;-68
2022/04/04 04:32:22;;;;;;;16.58;6.85;;;7.80;93.20;;;;;;5070663;28;20244;-66
2022/04/04 04:34:50;;;;;;;19.35;6.68;;;7.80;93.30;;;;;;5068025;28;20185;-67
2022/04/04 04:37:23;;;;;;;19.13;7.25;;;7.80;93.30;;;;;;5053683;28;21068;-67
2022/04/04 04:39:49;;;;;;;18.17;6.97;;;7.80;93.40;;;;;;5069191;28;21069;-68
2022/04/04 04:42:16;;;;;;;20.00;7.30;;;7.80;93.40;;;;;;5067393;28;20202;-67
2022/04/04 04:44:43;;;;;;;21.48;7.53;;;7.90;93.50;;;;;;5084731;28;20189;-66
2022/04/04 04:47:09;;;;;;;21.02;7.20;;;7.90;93.50;;;;;;5083831;28;20209;-67
2022/04/04 04:49:35;;;;;;;24.17;7.57;;;7.90;93.60;;;;;;5077986;28;20182;-67
2022/04/04 04:52:01;;;;;;;18.83;8.00;;;7.80;93.70;;;;;;5080899;28;20219;-67
2022/04/04 04:54:27;;;;;;;21.70;8.00;;;7.80;93.70;;;;;;5083839;28;20186;-66
2022/04/04 04:56:53;;;;;;;19.13;8.02;;;7.80;93.90;;;;;;5080887;28;20205;-66
2022/04/04 04:59:19;;;;;;;18.92;8.50;;;7.90;94.00;;;;;;5083664;28;20267;-68
2022/04/04 05:01:45;;;;;;;22.95;8.30;;;7.80;94.10;;;;;;5081555;28;20186;-67
2022/04/04 05:04:10;;;;;;;17.50;6.60;;;7.90;94.20;;;;;;5080231;28;20185;-65
2022/04/04 05:06:36;;;;;;;20.10;7.38;;;7.90;94.20;;;;;;5066584;28;20190;-67
2022/04/04 05:09:02;;;;;;;17.95;5.60;;;7.80;94.20;;;;;;5083288;28;20182;-68
2022/04/04 05:11:28;;;;;;;11.43;4.43;;;7.80;94.20;;;;;;5049895;28;20190;-67
2022/04/04 05:13:54;;;;;;;8.57;4.32;;;7.80;94.10;;;;;;5070248;28;20165;-67
2022/04/04 05:16:20;;;;;;;15.07;4.80;;;7.70;94.10;;;;;;5085403;28;20208;-68
2022/04/04 05:18:46;;;;;;;11.10;4.78;;;7.60;94.10;;;;;;5086233;28;20209;-67
2022/04/04 05:21:12;;;;;;;12.10;4.93;;;7.50;94.10;;;;;;5078449;28;20189;-68
2022/04/04 05:23:38;;;;;;;13.82;4.40;;;7.50;94.10;;;;;;5086019;28;20185;-66
2022/04/04 05:26:05;;;;;;;11.52;4.88;;;7.40;94.20;;;;;;5081672;28;20221;-67
2022/04/04 05:28:32;;;;;;;7.20;4.20;;;7.30;94.30;;;;;;5082113;28;20240;-68
2022/04/04 05:30:59;;;;;;;12.15;4.38;;;7.30;94.20;;;;;;5082632;28;20186;-68
2022/04/04 05:33:26;;;;;;;8.93;4.72;;;7.30;94.10;;;;;;5087091;28;20182;-70
2022/04/04 05:35:52;;;;;;;8.65;5.07;;;7.30;94.10;;;;;;5068046;28;20186;-67
2022/04/04 05:38:18;;;;;;;12.18;4.43;;;7.20;94.00;;;;;;5085412;28;20194;-68
2022/04/04 05:40:44;;;;;;;9.40;4.63;;;7.20;94.10;;;;;;5086034;28;20174;-69
2022/04/04 05:43:10;;;;;;;9.88;4.63;;;7.20;94.20;;;;;;5066690;28;20189;-66
2022/04/04 05:45:35;;;;;;;9.90;4.30;;;7.20;94.20;;;;;;5084448;28;20662;-68
2022/04/04 05:48:02;;;;;;;11.27;4.28;;;7.20;94.30;;;;;;5087705;28;20232;-69
2022/04/04 05:50:28;;;;;;;10.32;4.50;;;7.20;94.20;;;;;;5084890;28;20192;-69
2022/04/04 05:52:54;;;;;;;10.25;4.32;;;7.20;94.40;;;;;;5067356;28;20186;-68
2022/04/04 05:55:20;;;;;;;19.58;5.30;;;7.20;94.40;;;;;;5082491;28;20223;-67
2022/04/04 05:57:46;;;;;;;12.82;5.10;;;7.20;94.50;;;;;;5069411;28;20190;-67
2022/04/04 06:00:13;;;;;;;15.05;5.03;;;7.10;94.70;;;;;;5084139;28;20665;-68
2022/04/04 06:02:44;;;;;;;15.75;4.90;;;7.10;94.90;;;;;;5086843;28;20194;-66
2022/04/04 06:05:11;;;;;;;17.73;4.97;;;7.10;95.20;;;;;;5088057;28;20248;-67
2022/04/04 06:07:38;;;;;;;9.82;4.72;;;7.00;95.40;;;;;;5087621;28;20202;-67
2022/04/04 06:10:06;;;;;;;10.05;4.93;;;7.00;95.40;;;;;;5088601;28;20185;-67
2022/04/04 06:12:31;;;;;;;13.90;4.90;;;7.00;95.80;;;;;;5070974;28;20186;-67
2022/04/04 06:14:57;;;;;;;12.50;5.30;;;6.90;96.00;;;;;;5070759;28;20193;-68
2022/04/04 06:17:23;;;;;;;15.88;5.05;;;6.90;96.20;;;;;;5090160;28;20723;-68
2022/04/04 06:19:48;;;;;;;22.58;6.15;;;6.80;96.40;;;;;;5070523;28;20555;-68
2022/04/04 06:22:14;;;;;;;22.73;5.90;;;6.80;96.70;;;;;;5050846;28;20235;-66
2022/04/04 06:24:40;;;;;;;16.83;6.20;;;6.80;96.80;;;;;;5088331;28;20185;-66
2022/04/04 06:27:06;;;;;;;17.98;6.28;;;6.80;96.90;;;;;;5071321;28;20266;-67
2022/04/04 06:29:33;;;;;;;19.42;6.10;;;6.80;96.70;;;;;;5067015;28;20348;-69
2022/04/04 06:31:59;;;;;;;14.13;5.78;;;6.80;97.50;;;;;;5087884;28;20273;-67
2022/04/04 06:34:25;;;;;;;14.68;5.95;;;6.80;97.50;;;;;;5088172;28;20178;-68
2022/04/04 06:36:51;;;;;;;16.85;6.15;;;6.90;97.70;;;;;;5068556;28;20239;-68
2022/04/04 06:39:18;;;;;;;15.15;5.38;;;6.80;97.70;;;;;;5089438;28;20304;-70
2022/04/04 06:41:47;;;;;;;16.08;5.72;;;6.80;97.80;;;;;;5070422;28;20229;-67
2022/04/04 06:44:13;;;;;;;18.25;6.28;;;6.80;98.10;;;;;;5086730;28;20277;-66
2022/04/04 06:46:39;;;;;;;19.13;5.53;;;6.90;98.10;;;;;;5069135;28;20292;-67
2022/04/04 06:49:06;;;;;;;17.60;6.43;;;6.80;98.20;;;;;;5089013;28;20673;-67
2022/04/04 06:51:33;;;;;;;18.90;6.13;;;6.80;98.30;;;;;;5085295;28;20182;-68
2022/04/04 06:54:00;;;;;;;20.48;7.00;;;6.90;98.60;;;;;;5071415;28;20196;-69
2022/04/04 06:56:26;;;;;;;17.25;6.03;;;6.80;98.70;;;;;;5068688;28;20922;-69
2022/04/04 06:58:52;;;;;;;24.48;7.72;;;6.80;98.80;;;;;;5066840;28;20189;-68
2022/04/04 07:01:19;;;;;;;20.45;6.82;;;6.70;99.00;;;;;;5084521;28;20194;-71
2022/04/04 07:03:44;;;;;;;25.88;7.30;;;6.60;99.10;;;;;;5086459;28;20193;-69
2022/04/04 07:06:10;;;;;;;25.60;7.18;;;6.60;99.50;;;;;;5080564;28;20205;-69
2022/04/04 07:08:36;;;;;;;23.02;7.50;;;6.50;99.60;;;;;;5051351;28;21007;-68
2022/04/04 07:11:03;;;;;;;29.13;7.97;;;6.50;99.80;;;;;;5066085;28;20229;-68
2022/04/04 07:13:31;;;;;;;24.75;7.65;;;6.40;99.90;;;;;;5050727;28;20178;-69
2022/04/04 07:15:57;;;;;;;31.02;7.90;;;6.40;99.90;;;;;;5086311;28;20227;-67
2022/04/04 07:18:23;;;;;;;24.52;7.32;;;6.40;99.90;;;;;;5084242;28;20193;-67
2022/04/04 07:20:48;;;;;;;21.10;7.28;;;6.40;99.90;;;;;;5067130;28;20678;-68
2022/04/04 07:23:14;;;;;;;23.60;6.60;;;6.40;99.90;;;;;;5063813;28;20186;-68
2022/04/04 07:25:40;;;;;;;33.75;7.10;;;6.40;99.90;;;;;;5068064;28;20221;-67
2022/04/04 07:28:06;;;;;;;21.52;7.38;;;6.40;99.90;;;;;;5087218;28;20217;-69
2022/04/04 07:30:31;;;;;;;24.60;7.63;;;6.40;99.90;;;;;;5069245;28;20182;-69
2022/04/04 07:32:57;;;;;;;26.80;7.28;;;6.40;99.90;;;;;;5069717;28;20178;-72
2022/04/04 07:35:23;;;;;;;34.53;7.25;;;6.40;99.90;;;;;;5084810;28;20187;-67
2022/04/04 07:37:50;;;;;;;25.88;7.82;;;6.40;99.90;;;;;;5068000;28;20190;-69
2022/04/04 07:40:18;;;;;;;34.28;7.80;;;6.40;99.90;;;;;;5069833;28;20186;-69
2022/04/04 07:42:45;;;;;;;30.50;7.82;;;6.40;99.90;;;;;;5089911;28;20285;-72
2022/04/04 07:45:13;;;;;;;27.45;7.57;;;6.40;99.90;;;;;;5084332;28;20239;-68
2022/04/04 07:47:39;;;;;;;23.60;6.70;;;6.40;99.90;;;;;;5086313;28;20202;-69
2022/04/04 07:50:07;;;;;;;22.08;6.63;;;6.40;99.90;;;;;;5086236;28;20198;-71
2022/04/04 07:52:33;;;;;;;19.35;6.20;;;6.40;99.90;;;;;;5090256;28;20190;-68
2022/04/04 07:54:59;;;;;;;29.30;6.50;;;6.40;99.90;;;;;;5087919;28;20185;-69
2022/04/04 07:57:25;;;;;;;23.25;7.60;;;6.40;99.90;;;;;;5089372;28;20743;-70
2022/04/04 07:59:51;;;;;;;24.90;7.28;;;6.40;99.90;;;;;;5068899;28;20227;-67
2022/04/04 08:02:18;;;;;;;23.45;6.82;;;6.30;99.90;;;;;;5087061;28;20745;-67
2022/04/04 08:04:43;;;;;;;27.70;7.32;;;6.30;99.90;;;;;;5087644;28;20244;-68
2022/04/04 08:07:09;;;;;;;35.00;6.82;;;6.30;99.90;;;;;;5068217;28;20202;-65
2022/04/04 08:09:35;;;;;;;28.67;7.30;;;6.20;99.90;;;;;;5089502;28;20178;-68
2022/04/04 08:12:00;;;;;;;40.53;7.70;;;6.10;99.90;;;;;;5053295;28;20190;-66
2022/04/04 08:14:26;;;;;;;34.28;7.75;;;6.10;99.90;;;;;;5072065;28;20193;-66
2022/04/04 08:16:52;;;;;;;33.53;7.47;;;6.10;99.90;;;;;;5082199;28;20197;-67
2022/04/04 08:19:18;;;;;;;38.00;7.95;;;6.10;99.90;;;;;;5070335;28;20186;-65
2022/04/04 08:21:45;;;;;;;26.35;7.13;;;6.10;99.90;;;;;;5086865;28;20185;-68
2022/04/04 08:24:14;;;;;;;40.45;8.68;;;6.00;99.90;;;;;;5068371;28;20209;-70
2022/04/04 08:26:41;;;;;;;36.97;8.43;;;6.00;99.90;;;;;;5086278;28;20224;-66
2022/04/04 08:29:10;;;;;;;36.53;8.52;;;6.00;99.90;;;;;;5067322;28;20201;-68
2022/04/04 08:31:37;;;;;;;29.65;7.97;;;6.00;99.90;;;;;;5066866;28;20654;-68
2022/04/04 08:34:03;;;;;;;30.50;7.40;;;6.10;99.90;;;;;;5088099;28;20264;-68
2022/04/04 08:36:29;;;;;;;32.65;8.43;;;6.10;99.90;;;;;;5087728;28;20590;-68
2022/04/04 08:38:54;;;;;;;32.63;9.23;;;6.10;99.90;;;;;;5089662;28;20186;-67
2022/04/04 08:41:21;;;;;;;32.30;8.68;;;6.10;99.90;;;;;;5085415;28;20190;-68
2022/04/04 08:43:51;;;;;;;38.10;8.50;;;6.20;99.90;;;;;;5078622;28;20174;-66
2022/04/04 08:46:18;;;;;;;41.53;8.57;;;6.20;99.90;;;;;;5066963;28;20197;-65
2022/04/04 08:48:44;;;;;;;29.77;9.02;;;6.20;99.90;;;;;;5087559;28;20208;-69
2022/04/04 08:51:10;;;;;;;35.50;9.60;;;6.20;99.90;;;;;;5086516;28;20213;-69
2022/04/04 08:53:38;;;;;;;32.42;9.35;;;6.20;99.90;;;;;;5086569;28;20209;-67
2022/04/04 08:56:05;;;;;;;36.13;8.95;;;6.20;99.90;;;;;;5064342;28;20202;-68
2022/04/04 08:58:32;;;;;;;36.90;9.18;;;6.20;99.90;;;;;;5065307;28;20556;-68
2022/04/04 09:00:58;;;;;;;42.55;9.85;;;6.30;99.90;;;;;;5081046;28;20189;-68
2022/04/04 09:03:31;;;;;;;33.88;9.02;;;6.30;99.90;;;;;;5079050;28;20222;-70
2022/04/04 09:06:03;;;;;;;37.97;10.02;;;6.30;99.90;;;;;;5082990;28;20198;-69
2022/04/04 09:08:30;;;;;;;39.97;9.95;;;6.40;99.90;;;;;;5080925;28;20221;-69
2022/04/04 09:11:00;;;;;;;37.95;9.25;;;6.40;99.90;;;;;;5064421;28;20240;-69
2022/04/04 09:13:27;;;;;;;34.95;9.35;;;6.40;99.90;;;;;;5062287;28;20244;-69
2022/04/04 09:16:02;;;;;;;23.67;8.35;;;6.40;99.90;;;;;;5081826;28;20190;-70
2022/04/04 09:18:36;;;;;;;35.38;8.57;;;6.40;99.90;;;;;;5083931;28;20607;-71
2022/04/04 09:21:04;;;;;;;27.63;7.47;;;6.40;99.90;;;;;;5083215;28;20199;-70
2022/04/04 09:23:42;;;;;;;31.73;7.57;;;6.50;99.90;;;;;;5080375;28;20194;-69
2022/04/04 09:26:32;;;;;;;29.65;7.32;;;6.50;99.90;;;;;;5078626;28;20316;-70
2022/04/04 09:29:16;;;;;;;35.13;7.65;;;6.50;99.90;;;;;;5065462;28;20194;-69
2022/04/04 09:31:52;;;;;;;26.63;6.75;;;6.50;99.90;;;;;;5082075;28;20194;-68
2022/04/04 09:34:19;;;;;;;29.25;6.28;;;6.50;99.90;;;;;;5086916;28;20189;-69
2022/04/04 09:36:47;;;;;;;20.48;5.85;;;6.60;99.90;;;;;;5089840;28;20642;-70
2022/04/04 09:39:14;;;;;;;25.45;5.82;;;6.60;99.90;;;;;;5089640;28;20182;-68
2022/04/04 09:41:40;;;;;;;29.92;6.63;;;6.60;99.90;;;;;;5065868;28;20189;-67
2022/04/04 09:44:08;;;;;;;26.50;6.18;;;6.60;99.90;;;;;;5090668;28;20249;-70
2022/04/04 09:46:36;;;;;;;31.92;6.60;;;6.60;99.90;;;;;;5089429;28;20719;-65
2022/04/04 09:49:01;;;;;;;35.60;7.50;;;6.60;99.90;;;;;;5073099;28;20186;-69
2022/04/04 09:51:47;;;;;;;39.05;6.80;;;6.60;99.90;;;;;;5091088;28;20182;-68
2022/04/04 09:54:27;;;;;;;29.02;6.35;;;6.70;99.90;;;;;;5089500;28;20186;-68
2022/04/04 09:57:09;;;;;;;30.08;6.65;;;6.70;99.90;;;;;;5090238;28;20862;-67
2022/04/04 09:59:37;;;;;;;27.83;5.80;;;6.70;99.90;;;;;;5070005;28;20182;-67
2022/04/04 10:02:03;;;;;;;35.17;7.30;;;6.70;99.90;;;;;;5071692;28;20196;-66
2022/04/04 10:04:31;;;;;;;28.25;5.65;;;6.70;99.90;;;;;;5090565;28;20178;-69
2022/04/04 10:07:01;;;;;;;28.13;5.97;;;6.70;99.90;;;;;;5084728;28;20651;-71
2022/04/04 10:09:28;;;;;;;40.72;6.22;;;6.70;99.90;;;;;;5069295;28;20272;-66
2022/04/04 10:11:54;;;;;;;25.38;4.97;;;6.80;99.90;;;;;;5072023;28;20197;-68
2022/04/04 10:14:20;;;;;;;31.15;5.50;;;6.80;99.90;;;;;;5083911;28;20178;-68
2022/04/04 10:16:47;;;;;;;27.95;6.97;;;6.80;99.90;;;;;;5087677;28;20413;-68
2022/04/04 10:19:15;;;;;;;36.20;6.70;;;7.20;99.90;;;;;;5086375;28;20209;-69
2022/04/04 10:21:41;;;;;;;;;;;7.10;99.90;;;;;;5088191;28;20138;-69
2022/04/04 10:24:07;;;;;;;;;;;7.00;99.90;;;;;;5089420;28;20010;-67
2022/04/04 10:26:34;;;;;;;;;;;7.00;99.90;;;;;;5052730;28;19920;-66
2022/04/04 10:29:16;;;;;;;;;;;6.90;99.90;;;;;;5069721;28;20348;-67
2022/04/04 10:31:43;;;;;;;;;;;6.90;99.90;;;;;;5071092;28;20423;-69
2022/04/04 10:34:13;;;;;;;;;;;6.90;99.90;;;;;;5068146;28;20019;-66
2022/04/04 10:36:52;;;;;;;;;;;6.90;99.90;;;;;;5068828;28;19924;-68
2022/04/04 10:39:30;;;;;;;;;;;6.90;99.90;;;;;;5063413;28;19916;-67
2022/04/04 10:41:56;;;;;;;;;;;7.00;99.90;;;;;;5065378;28;19924;-70
2022/04/04 10:44:42;;;;;;;;;;;7.00;99.90;;;;;;5067762;28;19908;-65
2022/04/04 10:47:19;;;;;;;;;;;7.00;99.90;;;;;;5064959;28;19920;-67
2022/04/04 10:49:46;;;;;;;;;;;7.10;99.90;;;;;;5066392;28;19916;-66
2022/04/04 10:52:11;;;;;;;;;;;7.10;99.90;;;;;;5069562;28;19915;-70
2022/04/04 10:54:37;;;;;;;;;;;7.10;99.90;;;;;;5070259;28;20346;-65
2022/04/04 10:57:14;;;;;;;;;;;7.10;99.90;;;;;;5068691;28;20408;-67
2022/04/04 10:59:39;;;;;;;;;;;7.20;99.90;;;;;;5069771;28;19913;-69
2022/04/04 11:02:06;;;;;;;;;;;7.20;99.90;;;;;;5064962;28;20808;-70
2022/04/04 11:04:36;;;;;;;;;;;7.20;99.90;;;;;;5070464;28;20409;-65
2022/04/04 11:09:52;;;;;;;14.65;4.18;;;7.30;99.90;;;;;;5066262;28;20196;-67
2022/04/04 11:12:20;;;;;;;18.92;5.47;;;7.30;99.90;;;;;;5064575;28;20552;-67
2022/04/04 11:14:54;;;;;;;15.50;4.68;;;7.70;99.90;;;;;;5067924;28;20218;-69
2022/04/04 11:17:30;;;;;;;23.63;6.32;;;7.70;99.90;;;;;;5062031;28;20779;-67
2022/04/04 11:20:21;;;;;;;22.38;6.40;;;8.00;99.90;;;;;;5067117;28;20773;-66
2022/04/04 11:22:52;;;;;;;24.83;6.53;;;8.30;99.90;;;;;;5058118;28;20465;-68
2022/04/04 11:25:22;;;;;;;17.27;5.50;;;8.40;99.90;;;;;;5065256;28;20224;-67
2022/04/04 11:28:15;;;;;;;24.17;6.03;;;8.20;99.90;;;;;;5067424;28;20234;-68
2022/04/04 11:30:41;;;;;;;29.27;8.03;;;8.00;99.90;;;;;;5063586;28;20831;-69
2022/04/04 11:33:28;;;;;;;26.85;8.07;;;8.20;99.90;;;;;;5062400;28;20498;-67
2022/04/04 11:35:54;;;;;;;29.48;8.63;;;8.40;99.90;;;;;;5053097;28;20385;-68
2022/04/04 11:39:23;;;;;;;;;;;;;;;;;;;;;
2022/04/04 11:44:34;;;;;;;31.13;8.77;;;8.20;99.90;;;;;;5043403;28;20285;-68
2022/04/04 11:47:11;;;;;;;37.50;9.32;;;8.00;99.90;;;;;;5069930;28;20288;-68
2022/04/04 11:49:39;;;;;;;61.88;19.48;;;7.90;99.90;;;;;;5066998;28;20187;-68
2022/04/04 11:52:07;;;;;;;38.03;10.25;;;7.90;99.90;;;;;;5061674;28;20194;-68
2022/04/04 11:54:40;;;;;;;46.42;14.95;;;7.90;99.90;;;;;;5063150;28;20424;-66
2022/04/04 12:00:42;;;;;;;53.22;15.32;;;8.60;99.90;;;;;;5046869;28;20835;-67
2022/04/04 12:03:13;;;;;;;53.65;15.27;;;8.70;99.90;;;;;;5053966;28;20451;-68
2022/04/04 12:05:51;;;;;;;57.45;15.65;;;8.80;99.90;;;;;;5058608;28;20421;-67
2022/04/04 12:08:19;;;;;;;54.97;13.75;;;8.90;99.90;;;;;;5057901;28;20736;-69
2022/04/04 12:10:47;;;;;;;56.30;12.80;;;8.60;99.90;;;;;;5066206;28;20251;-67
2022/04/04 12:13:19;;;;;;;53.40;13.43;;;8.30;99.90;;;;;;5062785;28;20545;-68
2022/04/04 12:15:46;;;;;;;47.42;12.57;;;8.20;99.90;;;;;;5067494;28;20273;-67
2022/04/04 12:18:20;;;;;;;61.92;13.63;;;8.10;99.90;;;;;;5062006;28;20194;-70
2022/04/04 12:20:47;;;;;;;57.95;13.65;;;8.10;99.90;;;;;;5064817;28;20198;-69
2022/04/04 12:26:12;;;;;;;48.92;13.02;;;8.10;99.90;;;;;;5082433;28;20227;-68
2022/04/04 12:28:52;;;;;;;44.13;13.25;;;8.00;99.90;;;;;;5069487;28;20213;-70
2022/04/04 12:31:25;;;;;;;45.13;13.18;;;8.00;99.90;;;;;;5065663;28;20201;-69
2022/04/04 12:34:06;;;;;;;50.13;13.95;;;8.00;99.90;;;;;;5086300;28;20265;-67
2022/04/04 12:36:38;;;;;;;51.97;15.23;;;8.00;99.90;;;;;;5068527;28;20551;-68
2022/04/04 12:39:13;;;;;;;54.50;14.63;;;8.00;99.90;;;;;;5085819;28;20273;-68
2022/04/04 12:41:56;;;;;;;56.92;14.15;;;8.00;99.90;;;;;;5089349;28;20182;-66
2022/04/04 12:44:27;;;;;;;52.35;14.63;;;8.10;99.90;;;;;;5088690;28;20189;-66
2022/04/04 12:47:06;;;;;;;51.97;14.48;;;8.10;99.90;;;;;;5067675;28;20186;-68
2022/04/04 12:49:32;;;;;;;39.67;13.93;;;8.10;99.90;;;;;;5069918;28;20213;-68
2022/04/04 12:52:05;;;;;;;56.08;14.43;;;8.10;99.90;;;;;;5068176;28;20213;-67
2022/04/04 12:54:32;;;;;;;59.35;14.95;;;8.10;99.90;;;;;;5085781;28;20944;-69
2022/04/04 12:57:03;;;;;;;67.82;15.23;;;8.10;99.90;;;;;;5069131;28;20276;-68
2022/04/04 12:59:30;;;;;;;58.53;14.30;;;8.10;99.90;;;;;;5069809;28;20181;-66
2022/04/04 13:02:04;;;;;;;52.53;14.75;;;8.20;99.90;;;;;;5069535;28;20201;-67
2022/04/04 13:04:30;;;;;;;55.17;14.98;;;8.20;99.90;;;;;;5069764;28;20198;-68
2022/04/04 13:07:05;;;;;;;57.95;15.35;;;8.20;99.90;;;;;;5085976;28;20878;-67
2022/04/04 13:09:31;;;;;;;44.65;14.45;;;8.20;99.90;;;;;;5085777;28;20208;-66
2022/04/04 13:11:59;;;;;;;60.22;14.02;;;8.30;99.90;;;;;;5089901;28;20186;-66
2022/04/04 13:14:25;;;;;;;56.70;13.95;;;8.30;99.90;;;;;;5056696;28;20654;-67